sensor_id;sensor_type;location;lat;lon;timestamp;P1;durP1;ratioP1;P2;durP2;ratioP2
24761;SDS011;12865;51.934;10.330;2022-08-19T00:02:11;17.98;;;16.13;;
24761;SDS011;12865;51.934;10.330;2022-08-19T00:04:57;16.98;;;15.38;;
24761;SDS011;12865;51.934;10.330;2022-08-19T00:07:43;17.65;;;15.85;;
24761;SDS011;12865;51.934;10.330;2022-08-19T00:10:29;17.85;;;16.05;;
24761;SDS011;12865;51.934;10.330;2022-08-19T00:13:14;16.80;;;15.20;;
24761;SDS011;12865;51.934;10.330;2022-08-19T00:16:01;16.98;;;15.13;;
24761;SDS011;12865;51.934;10.330;2022-08-19T00:18:47;17.50;;;15.65;;
24761;SDS011;12865;51.934;10.330;2022-08-19T00:21:33;16.98;;;14.35;;
24761;SDS011;12865;51.934;10.330;2022-08-19T00:24:23;17.00;;;14.77;;
24761;SDS011;12865;51.934;10.330;2022-08-19T00:27:10;18.15;;;14.38;;
24761;SDS011;12865;51.934;10.330;2022-08-19T00:29:55;16.70;;;14.73;;
24761;SDS011;12865;51.934;10.330;2022-08-19T00:32:41;14.63;;;13.18;;
24761;SDS011;12865;51.934;10.330;2022-08-19T00:35:27;16.70;;;13.63;;
24761;SDS011;12865;51.934;10.330;2022-08-19T00:38:13;15.70;;;14.00;;
24761;SDS011;12865;51.934;10.330;2022-08-19T00:40:59;18.48;;;13.77;;
24761;SDS011;12865;51.934;10.330;2022-08-19T00:43:56;17.20;;;13.52;;
24761;SDS011;12865;51.934;10.330;2022-08-19T00:46:51;15.68;;;13.07;;
24761;SDS011;12865;51.934;10.330;2022-08-19T00:49:51;14.83;;;13.30;;
24761;SDS011;12865;51.934;10.330;2022-08-19T00:52:40;15.57;;;13.57;;
24761;SDS011;12865;51.934;10.330;2022-08-19T00:55:30;14.70;;;13.27;;
24761;SDS011;12865;51.934;10.330;2022-08-19T00:58:18;19.00;;;14.57;;
24761;SDS011;12865;51.934;10.330;2022-08-19T01:01:05;14.90;;;13.35;;
24761;SDS011;12865;51.934;10.330;2022-08-19T01:03:52;14.98;;;13.43;;
24761;SDS011;12865;51.934;10.330;2022-08-19T01:06:39;15.13;;;13.65;;
24761;SDS011;12865;51.934;10.330;2022-08-19T01:09:26;19.83;;;15.02;;
24761;SDS011;12865;51.934;10.330;2022-08-19T01:12:12;16.38;;;14.77;;
24761;SDS011;12865;51.934;10.330;2022-08-19T01:14:58;16.58;;;13.85;;
24761;SDS011;12865;51.934;10.330;2022-08-19T01:17:45;15.38;;;13.77;;
24761;SDS011;12865;51.934;10.330;2022-08-19T01:20:31;16.83;;;14.05;;
24761;SDS011;12865;51.934;10.330;2022-08-19T01:23:19;17.40;;;14.52;;
24761;SDS011;12865;51.934;10.330;2022-08-19T01:26:05;18.10;;;14.90;;
24761;SDS011;12865;51.934;10.330;2022-08-19T01:28:53;16.38;;;14.77;;
24761;SDS011;12865;51.934;10.330;2022-08-19T01:31:40;18.02;;;14.63;;
24761;SDS011;12865;51.934;10.330;2022-08-19T01:34:26;15.85;;;14.23;;
24761;SDS011;12865;51.934;10.330;2022-08-19T01:37:12;18.10;;;14.85;;
24761;SDS011;12865;51.934;10.330;2022-08-19T01:39:59;17.48;;;15.27;;
24761;SDS011;12865;51.934;10.330;2022-08-19T01:42:46;17.00;;;15.25;;
24761;SDS011;12865;51.934;10.330;2022-08-19T01:45:35;19.55;;;16.88;;
24761;SDS011;12865;51.934;10.330;2022-08-19T01:48:24;23.52;;;17.30;;
24761;SDS011;12865;51.934;10.330;2022-08-19T01:51:10;19.50;;;15.88;;
24761;SDS011;12865;51.934;10.330;2022-08-19T01:53:56;20.35;;;16.85;;
24761;SDS011;12865;51.934;10.330;2022-08-19T01:56:42;19.90;;;17.73;;
24761;SDS011;12865;51.934;10.330;2022-08-19T01:59:28;20.33;;;16.50;;
24761;SDS011;12865;51.934;10.330;2022-08-19T02:02:15;20.70;;;17.17;;
24761;SDS011;12865;51.934;10.330;2022-08-19T02:05:01;20.45;;;17.00;;
24761;SDS011;12865;51.934;10.330;2022-08-19T02:07:46;19.85;;;16.73;;
24761;SDS011;12865;51.934;10.330;2022-08-19T02:10:33;18.33;;;16.25;;
24761;SDS011;12865;51.934;10.330;2022-08-19T02:13:19;17.33;;;15.52;;
24761;SDS011;12865;51.934;10.330;2022-08-19T02:16:05;18.50;;;16.58;;
24761;SDS011;12865;51.934;10.330;2022-08-19T02:18:51;19.90;;;16.98;;
24761;SDS011;12865;51.934;10.330;2022-08-19T02:21:36;20.17;;;17.10;;
24761;SDS011;12865;51.934;10.330;2022-08-19T02:24:22;18.50;;;16.35;;
24761;SDS011;12865;51.934;10.330;2022-08-19T02:27:08;18.92;;;16.65;;
24761;SDS011;12865;51.934;10.330;2022-08-19T02:29:54;23.48;;;17.80;;
24761;SDS011;12865;51.934;10.330;2022-08-19T02:32:39;18.83;;;16.65;;
24761;SDS011;12865;51.934;10.330;2022-08-19T02:35:26;22.73;;;18.88;;
24761;SDS011;12865;51.934;10.330;2022-08-19T02:38:13;21.40;;;18.90;;
24761;SDS011;12865;51.934;10.330;2022-08-19T02:41:15;23.63;;;21.17;;
24761;SDS011;12865;51.934;10.330;2022-08-19T02:44:04;25.98;;;22.73;;
24761;SDS011;12865;51.934;10.330;2022-08-19T02:46:49;26.20;;;22.25;;
24761;SDS011;12865;51.934;10.330;2022-08-19T02:49:35;24.58;;;21.45;;
24761;SDS011;12865;51.934;10.330;2022-08-19T02:52:21;25.08;;;22.48;;
24761;SDS011;12865;51.934;10.330;2022-08-19T02:55:08;27.05;;;22.92;;
24761;SDS011;12865;51.934;10.330;2022-08-19T02:57:54;29.65;;;22.98;;
24761;SDS011;12865;51.934;10.330;2022-08-19T03:00:41;26.10;;;22.95;;
24761;SDS011;12865;51.934;10.330;2022-08-19T03:03:28;29.90;;;26.70;;
24761;SDS011;12865;51.934;10.330;2022-08-19T03:06:15;27.88;;;24.90;;
24761;SDS011;12865;51.934;10.330;2022-08-19T03:09:01;28.92;;;25.67;;
24761;SDS011;12865;51.934;10.330;2022-08-19T03:11:47;30.77;;;24.45;;
24761;SDS011;12865;51.934;10.330;2022-08-19T03:14:33;26.80;;;24.00;;
24761;SDS011;12865;51.934;10.330;2022-08-19T03:17:20;27.48;;;24.05;;
24761;SDS011;12865;51.934;10.330;2022-08-19T03:20:06;26.17;;;23.38;;
24761;SDS011;12865;51.934;10.330;2022-08-19T03:22:52;26.45;;;22.10;;
24761;SDS011;12865;51.934;10.330;2022-08-19T03:25:39;23.77;;;20.85;;
24761;SDS011;12865;51.934;10.330;2022-08-19T03:28:28;25.50;;;21.30;;
24761;SDS011;12865;51.934;10.330;2022-08-19T03:31:14;23.85;;;20.27;;
24761;SDS011;12865;51.934;10.330;2022-08-19T03:33:59;21.85;;;19.55;;
24761;SDS011;12865;51.934;10.330;2022-08-19T03:36:45;21.65;;;18.35;;
24761;SDS011;12865;51.934;10.330;2022-08-19T03:39:32;26.75;;;19.15;;
24761;SDS011;12865;51.934;10.330;2022-08-19T03:42:18;19.08;;;17.13;;
24761;SDS011;12865;51.934;10.330;2022-08-19T03:45:04;19.98;;;15.75;;
24761;SDS011;12865;51.934;10.330;2022-08-19T03:47:50;17.95;;;16.15;;
24761;SDS011;12865;51.934;10.330;2022-08-19T03:50:39;18.83;;;15.57;;
24761;SDS011;12865;51.934;10.330;2022-08-19T03:53:28;20.83;;;15.32;;
24761;SDS011;12865;51.934;10.330;2022-08-19T03:56:16;16.67;;;14.98;;
24761;SDS011;12865;51.934;10.330;2022-08-19T03:59:02;19.48;;;17.38;;
24761;SDS011;12865;51.934;10.330;2022-08-19T04:01:49;19.23;;;16.88;;
24761;SDS011;12865;51.934;10.330;2022-08-19T04:04:35;18.20;;;16.30;;
24761;SDS011;12865;51.934;10.330;2022-08-19T04:07:22;19.10;;;15.48;;
24761;SDS011;12865;51.934;10.330;2022-08-19T04:10:08;16.23;;;14.35;;
24761;SDS011;12865;51.934;10.330;2022-08-19T04:12:54;16.02;;;13.10;;
24761;SDS011;12865;51.934;10.330;2022-08-19T04:15:44;13.93;;;12.40;;
24761;SDS011;12865;51.934;10.330;2022-08-19T04:18:33;15.43;;;11.30;;
24761;SDS011;12865;51.934;10.330;2022-08-19T04:21:20;13.43;;;11.90;;
24761;SDS011;12865;51.934;10.330;2022-08-19T04:24:08;12.90;;;11.63;;
24761;SDS011;12865;51.934;10.330;2022-08-19T04:26:55;15.95;;;11.73;;
24761;SDS011;12865;51.934;10.330;2022-08-19T04:29:41;12.60;;;10.88;;
24761;SDS011;12865;51.934;10.330;2022-08-19T04:32:27;13.77;;;12.38;;
24761;SDS011;12865;51.934;10.330;2022-08-19T04:35:12;13.88;;;12.40;;
24761;SDS011;12865;51.934;10.330;2022-08-19T04:37:58;13.80;;;12.27;;
24761;SDS011;12865;51.934;10.330;2022-08-19T04:40:45;13.13;;;11.93;;
24761;SDS011;12865;51.934;10.330;2022-08-19T04:43:51;13.98;;;11.80;;
24761;SDS011;12865;51.934;10.330;2022-08-19T04:46:37;12.68;;;11.35;;
24761;SDS011;12865;51.934;10.330;2022-08-19T04:49:24;14.02;;;11.50;;
24761;SDS011;12865;51.934;10.330;2022-08-19T04:52:10;13.00;;;11.48;;
24761;SDS011;12865;51.934;10.330;2022-08-19T04:54:56;14.77;;;12.77;;
24761;SDS011;12865;51.934;10.330;2022-08-19T04:57:42;13.55;;;12.23;;
24761;SDS011;12865;51.934;10.330;2022-08-19T05:00:28;16.63;;;13.48;;
24761;SDS011;12865;51.934;10.330;2022-08-19T05:03:13;16.13;;;13.55;;
24761;SDS011;12865;51.934;10.330;2022-08-19T05:06:06;13.32;;;11.93;;
24761;SDS011;12865;51.934;10.330;2022-08-19T05:08:53;19.25;;;13.70;;
24761;SDS011;12865;51.934;10.330;2022-08-19T05:11:39;15.55;;;13.07;;
24761;SDS011;12865;51.934;10.330;2022-08-19T05:14:25;13.80;;;12.32;;
24761;SDS011;12865;51.934;10.330;2022-08-19T05:17:11;15.82;;;12.40;;
24761;SDS011;12865;51.934;10.330;2022-08-19T05:19:57;12.80;;;11.50;;
24761;SDS011;12865;51.934;10.330;2022-08-19T05:23:01;15.07;;;11.48;;
24761;SDS011;12865;51.934;10.330;2022-08-19T05:25:47;13.02;;;10.73;;
24761;SDS011;12865;51.934;10.330;2022-08-19T05:28:32;14.57;;;11.20;;
24761;SDS011;12865;51.934;10.330;2022-08-19T05:31:18;13.68;;;11.07;;
24761;SDS011;12865;51.934;10.330;2022-08-19T05:34:05;15.98;;;10.90;;
24761;SDS011;12865;51.934;10.330;2022-08-19T05:36:53;14.55;;;10.52;;
24761;SDS011;12865;51.934;10.330;2022-08-19T05:39:42;14.82;;;11.23;;
24761;SDS011;12865;51.934;10.330;2022-08-19T05:42:28;10.50;;;9.18;;
24761;SDS011;12865;51.934;10.330;2022-08-19T05:45:13;13.07;;;11.48;;
24761;SDS011;12865;51.934;10.330;2022-08-19T05:47:59;11.68;;;10.48;;
24761;SDS011;12865;51.934;10.330;2022-08-19T05:50:45;14.75;;;11.13;;
24761;SDS011;12865;51.934;10.330;2022-08-19T05:53:30;13.13;;;10.93;;
24761;SDS011;12865;51.934;10.330;2022-08-19T05:56:16;12.23;;;10.10;;
24761;SDS011;12865;51.934;10.330;2022-08-19T05:59:03;10.57;;;9.23;;
24761;SDS011;12865;51.934;10.330;2022-08-19T06:01:53;12.00;;;9.48;;
24761;SDS011;12865;51.934;10.330;2022-08-19T06:04:40;11.68;;;9.88;;
24761;SDS011;12865;51.934;10.330;2022-08-19T06:07:28;12.90;;;10.10;;
24761;SDS011;12865;51.934;10.330;2022-08-19T06:10:14;14.25;;;11.63;;
24761;SDS011;12865;51.934;10.330;2022-08-19T06:12:59;13.00;;;11.60;;
24761;SDS011;12865;51.934;10.330;2022-08-19T06:15:45;13.55;;;11.38;;
24761;SDS011;12865;51.934;10.330;2022-08-19T06:18:31;15.50;;;12.18;;
24761;SDS011;12865;51.934;10.330;2022-08-19T06:21:22;13.82;;;12.15;;
24761;SDS011;12865;51.934;10.330;2022-08-19T06:24:11;14.52;;;12.50;;
24761;SDS011;12865;51.934;10.330;2022-08-19T06:26:58;15.77;;;14.17;;
24761;SDS011;12865;51.934;10.330;2022-08-19T06:29:44;15.18;;;13.57;;
24761;SDS011;12865;51.934;10.330;2022-08-19T06:32:32;14.90;;;13.40;;
24761;SDS011;12865;51.934;10.330;2022-08-19T06:35:17;15.40;;;13.80;;
24761;SDS011;12865;51.934;10.330;2022-08-19T06:38:03;14.38;;;12.90;;
24761;SDS011;12865;51.934;10.330;2022-08-19T06:40:50;14.45;;;12.63;;
24761;SDS011;12865;51.934;10.330;2022-08-19T06:43:35;15.85;;;13.48;;
24761;SDS011;12865;51.934;10.330;2022-08-19T06:46:21;13.95;;;11.88;;
24761;SDS011;12865;51.934;10.330;2022-08-19T06:49:08;13.20;;;11.80;;
24761;SDS011;12865;51.934;10.330;2022-08-19T06:51:59;14.32;;;12.45;;
24761;SDS011;12865;51.934;10.330;2022-08-19T06:54:45;13.95;;;12.20;;
24761;SDS011;12865;51.934;10.330;2022-08-19T06:57:31;12.55;;;11.25;;
24761;SDS011;12865;51.934;10.330;2022-08-19T07:00:17;12.40;;;10.85;;
24761;SDS011;12865;51.934;10.330;2022-08-19T07:03:03;12.13;;;10.70;;
24761;SDS011;12865;51.934;10.330;2022-08-19T07:05:49;13.50;;;10.65;;
24761;SDS011;12865;51.934;10.330;2022-08-19T07:08:35;13.77;;;10.55;;
24761;SDS011;12865;51.934;10.330;2022-08-19T07:11:22;14.52;;;9.88;;
24761;SDS011;12865;51.934;10.330;2022-08-19T07:14:07;10.15;;;9.25;;
24761;SDS011;12865;51.934;10.330;2022-08-19T07:16:54;11.07;;;9.85;;
24761;SDS011;12865;51.934;10.330;2022-08-19T07:19:41;11.85;;;10.65;;
24761;SDS011;12865;51.934;10.330;2022-08-19T07:22:28;11.88;;;10.35;;
24761;SDS011;12865;51.934;10.330;2022-08-19T07:25:14;12.10;;;11.00;;
24761;SDS011;12865;51.934;10.330;2022-08-19T07:28:01;13.40;;;10.48;;
24761;SDS011;12865;51.934;10.330;2022-08-19T07:30:47;11.35;;;10.00;;
24761;SDS011;12865;51.934;10.330;2022-08-19T07:33:34;12.25;;;11.02;;
24761;SDS011;12865;51.934;10.330;2022-08-19T07:36:25;12.60;;;11.30;;
24761;SDS011;12865;51.934;10.330;2022-08-19T07:39:22;13.05;;;11.75;;
24761;SDS011;12865;51.934;10.330;2022-08-19T07:42:10;13.38;;;12.07;;
24761;SDS011;12865;51.934;10.330;2022-08-19T07:44:56;13.80;;;12.65;;
24761;SDS011;12865;51.934;10.330;2022-08-19T07:47:43;12.68;;;11.48;;
24761;SDS011;12865;51.934;10.330;2022-08-19T07:50:29;13.38;;;11.75;;
24761;SDS011;12865;51.934;10.330;2022-08-19T07:53:15;14.05;;;12.00;;
24761;SDS011;12865;51.934;10.330;2022-08-19T07:56:00;14.13;;;12.73;;
24761;SDS011;12865;51.934;10.330;2022-08-19T07:58:48;13.27;;;11.75;;
24761;SDS011;12865;51.934;10.330;2022-08-19T08:01:35;13.70;;;12.23;;
24761;SDS011;12865;51.934;10.330;2022-08-19T08:04:22;13.63;;;11.40;;
24761;SDS011;12865;51.934;10.330;2022-08-19T08:07:26;13.48;;;12.05;;
24761;SDS011;12865;51.934;10.330;2022-08-19T08:10:30;12.48;;;11.15;;
24761;SDS011;12865;51.934;10.330;2022-08-19T08:13:16;12.52;;;11.30;;
24761;SDS011;12865;51.934;10.330;2022-08-19T08:16:02;12.88;;;11.52;;
24761;SDS011;12865;51.934;10.330;2022-08-19T08:18:48;16.65;;;13.25;;
24761;SDS011;12865;51.934;10.330;2022-08-19T08:21:34;12.98;;;11.77;;
24761;SDS011;12865;51.934;10.330;2022-08-19T08:24:20;12.85;;;11.40;;
24761;SDS011;12865;51.934;10.330;2022-08-19T08:27:06;12.68;;;11.38;;
24761;SDS011;12865;51.934;10.330;2022-08-19T08:29:52;13.10;;;11.80;;
24761;SDS011;12865;51.934;10.330;2022-08-19T08:32:38;14.52;;;12.77;;
24761;SDS011;12865;51.934;10.330;2022-08-19T08:35:25;12.57;;;11.48;;
24761;SDS011;12865;51.934;10.330;2022-08-19T08:38:11;12.95;;;11.48;;
24761;SDS011;12865;51.934;10.330;2022-08-19T08:40:59;14.43;;;11.90;;
24761;SDS011;12865;51.934;10.330;2022-08-19T08:43:52;12.50;;;11.40;;
24761;SDS011;12865;51.934;10.330;2022-08-19T08:46:54;12.35;;;11.13;;
24761;SDS011;12865;51.934;10.330;2022-08-19T08:49:45;13.32;;;12.10;;
24761;SDS011;12865;51.934;10.330;2022-08-19T08:52:39;13.27;;;11.90;;
24761;SDS011;12865;51.934;10.330;2022-08-19T08:55:31;12.93;;;11.63;;
24761;SDS011;12865;51.934;10.330;2022-08-19T08:58:19;13.73;;;11.70;;
24761;SDS011;12865;51.934;10.330;2022-08-19T09:01:12;12.88;;;11.45;;
24761;SDS011;12865;51.934;10.330;2022-08-19T09:03:57;12.35;;;10.93;;
24761;SDS011;12865;51.934;10.330;2022-08-19T09:09:41;12.80;;;10.98;;
24761;SDS011;12865;51.934;10.330;2022-08-19T09:15:45;12.50;;;11.23;;
24761;SDS011;12865;51.934;10.330;2022-08-19T09:18:40;13.23;;;11.93;;
24761;SDS011;12865;51.934;10.330;2022-08-19T09:21:29;11.85;;;10.57;;
24761;SDS011;12865;51.934;10.330;2022-08-19T09:24:14;13.20;;;11.38;;
24761;SDS011;12865;51.934;10.330;2022-08-19T09:27:00;11.45;;;10.45;;
24761;SDS011;12865;51.934;10.330;2022-08-19T09:29:47;13.38;;;11.88;;
24761;SDS011;12865;51.934;10.330;2022-08-19T09:32:34;14.55;;;13.02;;
24761;SDS011;12865;51.934;10.330;2022-08-19T09:35:20;14.90;;;13.35;;
24761;SDS011;12865;51.934;10.330;2022-08-19T09:38:08;13.07;;;11.75;;
24761;SDS011;12865;51.934;10.330;2022-08-19T09:40:54;14.25;;;12.85;;
24761;SDS011;12865;51.934;10.330;2022-08-19T09:43:40;13.45;;;12.02;;
24761;SDS011;12865;51.934;10.330;2022-08-19T09:46:27;13.20;;;11.57;;
24761;SDS011;12865;51.934;10.330;2022-08-19T09:49:16;13.10;;;11.80;;
24761;SDS011;12865;51.934;10.330;2022-08-19T09:52:03;11.80;;;10.70;;
24761;SDS011;12865;51.934;10.330;2022-08-19T09:54:51;11.38;;;10.23;;
24761;SDS011;12865;51.934;10.330;2022-08-19T09:57:38;11.27;;;10.18;;
24761;SDS011;12865;51.934;10.330;2022-08-19T10:00:23;9.90;;;8.90;;
24761;SDS011;12865;51.934;10.330;2022-08-19T10:03:09;11.82;;;10.07;;
24761;SDS011;12865;51.934;10.330;2022-08-19T10:05:57;9.55;;;8.75;;
24761;SDS011;12865;51.934;10.330;2022-08-19T10:11:32;7.78;;;6.60;;
24761;SDS011;12865;51.934;10.330;2022-08-19T10:14:21;6.68;;;6.07;;
24761;SDS011;12865;51.934;10.330;2022-08-19T10:17:08;6.28;;;5.75;;
24761;SDS011;12865;51.934;10.330;2022-08-19T10:19:54;6.63;;;5.60;;
24761;SDS011;12865;51.934;10.330;2022-08-19T10:22:40;6.75;;;5.70;;
24761;SDS011;12865;51.934;10.330;2022-08-19T10:25:26;5.95;;;5.22;;
24761;SDS011;12865;51.934;10.330;2022-08-19T10:28:12;6.60;;;5.70;;
24761;SDS011;12865;51.934;10.330;2022-08-19T10:30:57;7.97;;;6.20;;
24761;SDS011;12865;51.934;10.330;2022-08-19T10:33:44;5.90;;;5.35;;
24761;SDS011;12865;51.934;10.330;2022-08-19T10:36:35;6.07;;;5.53;;
24761;SDS011;12865;51.934;10.330;2022-08-19T10:39:22;5.97;;;5.38;;
24761;SDS011;12865;51.934;10.330;2022-08-19T10:42:08;7.00;;;5.18;;
24761;SDS011;12865;51.934;10.330;2022-08-19T10:44:55;6.40;;;5.70;;
24761;SDS011;12865;51.934;10.330;2022-08-19T10:47:41;6.90;;;6.18;;
24761;SDS011;12865;51.934;10.330;2022-08-19T10:50:27;6.78;;;6.05;;
24761;SDS011;12865;51.934;10.330;2022-08-19T10:53:31;7.45;;;6.70;;
24761;SDS011;12865;51.934;10.330;2022-08-19T10:56:17;5.72;;;5.18;;
24761;SDS011;12865;51.934;10.330;2022-08-19T10:59:23;6.60;;;6.00;;
24761;SDS011;12865;51.934;10.330;2022-08-19T11:02:11;6.47;;;5.88;;
24761;SDS011;12865;51.934;10.330;2022-08-19T11:04:58;6.53;;;5.93;;
24761;SDS011;12865;51.934;10.330;2022-08-19T11:07:43;7.60;;;6.20;;
24761;SDS011;12865;51.934;10.330;2022-08-19T11:10:30;6.82;;;6.22;;
24761;SDS011;12865;51.934;10.330;2022-08-19T11:13:16;6.63;;;5.68;;
24761;SDS011;12865;51.934;10.330;2022-08-19T11:16:03;6.00;;;5.38;;
24761;SDS011;12865;51.934;10.330;2022-08-19T11:18:54;6.93;;;6.43;;
24761;SDS011;12865;51.934;10.330;2022-08-19T11:21:43;6.45;;;5.85;;
24761;SDS011;12865;51.934;10.330;2022-08-19T11:24:32;6.28;;;5.68;;
24761;SDS011;12865;51.934;10.330;2022-08-19T11:27:17;8.10;;;5.53;;
24761;SDS011;12865;51.934;10.330;2022-08-19T11:30:03;5.47;;;4.93;;
24761;SDS011;12865;51.934;10.330;2022-08-19T11:32:50;5.22;;;4.72;;
24761;SDS011;12865;51.934;10.330;2022-08-19T11:35:38;4.82;;;4.43;;
24761;SDS011;12865;51.934;10.330;2022-08-19T11:38:25;5.72;;;4.22;;
24761;SDS011;12865;51.934;10.330;2022-08-19T11:41:11;4.20;;;3.80;;
24761;SDS011;12865;51.934;10.330;2022-08-19T11:43:57;3.88;;;3.58;;
24761;SDS011;12865;51.934;10.330;2022-08-19T11:46:43;4.07;;;3.78;;
24761;SDS011;12865;51.934;10.330;2022-08-19T11:49:32;7.72;;;3.80;;
24761;SDS011;12865;51.934;10.330;2022-08-19T11:52:21;3.95;;;3.22;;
24761;SDS011;12865;51.934;10.330;2022-08-19T11:55:07;3.70;;;2.97;;
24761;SDS011;12865;51.934;10.330;2022-08-19T11:57:53;3.45;;;2.90;;
24761;SDS011;12865;51.934;10.330;2022-08-19T12:00:39;2.70;;;2.50;;
24761;SDS011;12865;51.934;10.330;2022-08-19T12:03:26;4.90;;;2.75;;
24761;SDS011;12865;51.934;10.330;2022-08-19T12:06:14;2.90;;;2.60;;
24761;SDS011;12865;51.934;10.330;2022-08-19T12:09:03;3.72;;;2.38;;
24761;SDS011;12865;51.934;10.330;2022-08-19T12:11:51;5.50;;;2.90;;
24761;SDS011;12865;51.934;10.330;2022-08-19T12:14:36;3.92;;;2.40;;
24761;SDS011;12865;51.934;10.330;2022-08-19T12:17:23;3.15;;;2.67;;
24761;SDS011;12865;51.934;10.330;2022-08-19T12:20:10;2.47;;;2.28;;
24761;SDS011;12865;51.934;10.330;2022-08-19T12:22:58;2.58;;;2.38;;
24761;SDS011;12865;51.934;10.330;2022-08-19T12:25:46;4.93;;;2.40;;
24761;SDS011;12865;51.934;10.330;2022-08-19T12:28:35;2.90;;;2.53;;
24761;SDS011;12865;51.934;10.330;2022-08-19T12:31:21;2.72;;;2.53;;
24761;SDS011;12865;51.934;10.330;2022-08-19T12:34:07;1.88;;;1.77;;
24761;SDS011;12865;51.934;10.330;2022-08-19T12:36:53;2.53;;;1.80;;
24761;SDS011;12865;51.934;10.330;2022-08-19T12:39:39;2.50;;;2.00;;
24761;SDS011;12865;51.934;10.330;2022-08-19T12:42:27;3.63;;;1.70;;
24761;SDS011;12865;51.934;10.330;2022-08-19T12:45:13;2.17;;;1.77;;
24761;SDS011;12865;51.934;10.330;2022-08-19T12:47:59;2.90;;;1.83;;
24761;SDS011;12865;51.934;10.330;2022-08-19T12:50:45;2.65;;;1.77;;
24761;SDS011;12865;51.934;10.330;2022-08-19T12:53:32;2.25;;;1.40;;
24761;SDS011;12865;51.934;10.330;2022-08-19T12:56:17;3.08;;;1.50;;
24761;SDS011;12865;51.934;10.330;2022-08-19T12:59:04;1.40;;;1.30;;
24761;SDS011;12865;51.934;10.330;2022-08-19T13:01:50;2.47;;;1.55;;
24761;SDS011;12865;51.934;10.330;2022-08-19T13:04:36;2.17;;;1.60;;
24761;SDS011;12865;51.934;10.330;2022-08-19T13:07:25;2.28;;;1.67;;
24761;SDS011;12865;51.934;10.330;2022-08-19T13:10:12;1.75;;;1.48;;
24761;SDS011;12865;51.934;10.330;2022-08-19T13:13:01;2.08;;;1.67;;
24761;SDS011;12865;51.934;10.330;2022-08-19T13:15:51;1.08;;;1.08;;
24761;SDS011;12865;51.934;10.330;2022-08-19T13:18:37;2.40;;;1.67;;
24761;SDS011;12865;51.934;10.330;2022-08-19T13:21:24;1.60;;;1.50;;
24761;SDS011;12865;51.934;10.330;2022-08-19T13:24:12;1.77;;;1.40;;
24761;SDS011;12865;51.934;10.330;2022-08-19T13:26:58;2.03;;;1.15;;
24761;SDS011;12865;51.934;10.330;2022-08-19T13:29:45;2.95;;;1.58;;
24761;SDS011;12865;51.934;10.330;2022-08-19T13:32:49;2.10;;;1.25;;
24761;SDS011;12865;51.934;10.330;2022-08-19T13:35:57;1.50;;;1.40;;
24761;SDS011;12865;51.934;10.330;2022-08-19T13:38:45;1.02;;;1.02;;
24761;SDS011;12865;51.934;10.330;2022-08-19T13:41:31;1.40;;;1.30;;
24761;SDS011;12865;51.934;10.330;2022-08-19T13:44:17;2.40;;;1.27;;
24761;SDS011;12865;51.934;10.330;2022-08-19T13:47:04;2.03;;;1.13;;
24761;SDS011;12865;51.934;10.330;2022-08-19T13:49:52;1.88;;;1.10;;
24761;SDS011;12865;51.934;10.330;2022-08-19T13:52:38;1.77;;;1.20;;
24761;SDS011;12865;51.934;10.330;2022-08-19T13:55:25;1.52;;;1.23;;
24761;SDS011;12865;51.934;10.330;2022-08-19T13:58:12;1.23;;;1.10;;
24761;SDS011;12865;51.934;10.330;2022-08-19T14:00:58;3.85;;;1.20;;
24761;SDS011;12865;51.934;10.330;2022-08-19T14:03:44;2.80;;;1.35;;
24761;SDS011;12865;51.934;10.330;2022-08-19T14:06:30;1.25;;;1.20;;
24761;SDS011;12865;51.934;10.330;2022-08-19T14:09:16;1.60;;;1.48;;
24761;SDS011;12865;51.934;10.330;2022-08-19T14:12:01;1.48;;;1.38;;
24761;SDS011;12865;51.934;10.330;2022-08-19T14:14:47;1.27;;;1.10;;
24761;SDS011;12865;51.934;10.330;2022-08-19T14:17:33;1.23;;;1.13;;
24761;SDS011;12865;51.934;10.330;2022-08-19T14:20:20;1.70;;;1.60;;
24761;SDS011;12865;51.934;10.330;2022-08-19T14:23:06;2.55;;;1.30;;
24761;SDS011;12865;51.934;10.330;2022-08-19T14:25:51;2.03;;;1.23;;
24761;SDS011;12865;51.934;10.330;2022-08-19T14:28:37;2.25;;;1.30;;
24761;SDS011;12865;51.934;10.330;2022-08-19T14:31:26;1.20;;;1.20;;
24761;SDS011;12865;51.934;10.330;2022-08-19T14:34:12;1.10;;;1.02;;
24761;SDS011;12865;51.934;10.330;2022-08-19T14:36:59;0.95;;;0.95;;
24761;SDS011;12865;51.934;10.330;2022-08-19T14:39:45;1.15;;;1.05;;
24761;SDS011;12865;51.934;10.330;2022-08-19T14:42:31;1.42;;;1.20;;
24761;SDS011;12865;51.934;10.330;2022-08-19T14:45:16;4.07;;;1.20;;
24761;SDS011;12865;51.934;10.330;2022-08-19T14:48:03;1.02;;;1.02;;
24761;SDS011;12865;51.934;10.330;2022-08-19T14:50:49;1.40;;;1.30;;
24761;SDS011;12865;51.934;10.330;2022-08-19T14:53:35;2.00;;;1.15;;
24761;SDS011;12865;51.934;10.330;2022-08-19T14:56:22;2.28;;;1.17;;
24761;SDS011;12865;51.934;10.330;2022-08-19T14:59:12;1.00;;;1.00;;
24761;SDS011;12865;51.934;10.330;2022-08-19T15:01:58;1.20;;;1.20;;
24761;SDS011;12865;51.934;10.330;2022-08-19T15:04:44;0.95;;;0.95;;
24761;SDS011;12865;51.934;10.330;2022-08-19T15:07:30;2.33;;;1.20;;
24761;SDS011;12865;51.934;10.330;2022-08-19T15:10:16;1.33;;;1.15;;
24761;SDS011;12865;51.934;10.330;2022-08-19T15:13:02;1.98;;;1.20;;
24761;SDS011;12865;51.934;10.330;2022-08-19T15:15:47;1.08;;;1.02;;
24761;SDS011;12865;51.934;10.330;2022-08-19T15:18:33;1.20;;;1.10;;
24761;SDS011;12865;51.934;10.330;2022-08-19T15:21:20;3.22;;;1.70;;
24761;SDS011;12865;51.934;10.330;2022-08-19T15:24:06;1.27;;;1.17;;
24761;SDS011;12865;51.934;10.330;2022-08-19T15:26:53;1.55;;;1.45;;
24761;SDS011;12865;51.934;10.330;2022-08-19T15:29:40;3.95;;;1.77;;
24761;SDS011;12865;51.934;10.330;2022-08-19T15:32:26;1.95;;;1.60;;
24761;SDS011;12865;51.934;10.330;2022-08-19T15:35:13;1.60;;;1.50;;
24761;SDS011;12865;51.934;10.330;2022-08-19T15:37:59;3.60;;;1.70;;
24761;SDS011;12865;51.934;10.330;2022-08-19T15:40:44;2.50;;;1.77;;
24761;SDS011;12865;51.934;10.330;2022-08-19T15:43:32;2.22;;;2.00;;
24761;SDS011;12865;51.934;10.330;2022-08-19T15:46:23;1.73;;;1.60;;
24761;SDS011;12865;51.934;10.330;2022-08-19T15:49:13;3.53;;;2.00;;
24761;SDS011;12865;51.934;10.330;2022-08-19T15:52:00;3.28;;;2.00;;
24761;SDS011;12865;51.934;10.330;2022-08-19T15:54:46;2.70;;;1.88;;
24761;SDS011;12865;51.934;10.330;2022-08-19T15:57:32;2.40;;;1.80;;
24761;SDS011;12865;51.934;10.330;2022-08-19T16:00:36;2.45;;;2.00;;
24761;SDS011;12865;51.934;10.330;2022-08-19T16:03:40;1.83;;;1.73;;
24761;SDS011;12865;51.934;10.330;2022-08-19T16:06:46;2.15;;;1.95;;
24761;SDS011;12865;51.934;10.330;2022-08-19T16:09:32;2.10;;;1.85;;
24761;SDS011;12865;51.934;10.330;2022-08-19T16:12:19;3.58;;;1.60;;
24761;SDS011;12865;51.934;10.330;2022-08-19T16:15:05;2.78;;;2.22;;
24761;SDS011;12865;51.934;10.330;2022-08-19T16:17:51;2.30;;;2.08;;
24761;SDS011;12865;51.934;10.330;2022-08-19T16:20:36;2.20;;;2.10;;
24761;SDS011;12865;51.934;10.330;2022-08-19T16:23:23;3.08;;;1.90;;
24761;SDS011;12865;51.934;10.330;2022-08-19T16:26:08;4.07;;;2.17;;